sensor_id;sensor_type;location;lat;lon;timestamp;temperature;humidity
22682;DHT22;11508;50.856;4.380;2023-08-24T00:02:12;21.80;99.90
22682;DHT22;11508;50.856;4.380;2023-08-24T00:07:43;21.90;99.90
22682;DHT22;11508;50.856;4.380;2023-08-24T00:10:10;21.90;99.90
22682;DHT22;11508;50.856;4.380;2023-08-24T00:12:36;21.70;99.90
22682;DHT22;11508;50.856;4.380;2023-08-24T00:15:10;21.60;99.90
22682;DHT22;11508;50.856;4.380;2023-08-24T00:17:43;21.60;99.90
22682;DHT22;11508;50.856;4.380;2023-08-24T00:20:09;21.50;99.90
22682;DHT22;11508;50.856;4.380;2023-08-24T00:22:40;21.60;99.90
22682;DHT22;11508;50.856;4.380;2023-08-24T00:25:10;21.50;99.90
22682;DHT22;11508;50.856;4.380;2023-08-24T00:27:37;21.60;99.90
22682;DHT22;11508;50.856;4.380;2023-08-24T00:30:27;21.50;99.90
22682;DHT22;11508;50.856;4.380;2023-08-24T00:32:55;21.50;99.90
22682;DHT22;11508;50.856;4.380;2023-08-24T00:35:24;21.50;99.90
22682;DHT22;11508;50.856;4.380;2023-08-24T00:37:53;21.40;99.90
22682;DHT22;11508;50.856;4.380;2023-08-24T00:40:36;21.30;99.90
22682;DHT22;11508;50.856;4.380;2023-08-24T00:43:14;21.30;99.90
22682;DHT22;11508;50.856;4.380;2023-08-24T00:45:42;21.40;99.90
22682;DHT22;11508;50.856;4.380;2023-08-24T00:48:19;21.30;99.90
22682;DHT22;11508;50.856;4.380;2023-08-24T00:53:57;21.10;99.90
22682;DHT22;11508;50.856;4.380;2023-08-24T00:56:30;21.30;99.90
22682;DHT22;11508;50.856;4.380;2023-08-24T00:58:57;21.30;99.90
22682;DHT22;11508;50.856;4.380;2023-08-24T01:01:25;21.40;99.90
22682;DHT22;11508;50.856;4.380;2023-08-24T01:04:00;21.40;99.90
22682;DHT22;11508;50.856;4.380;2023-08-24T01:06:30;21.50;99.90
22682;DHT22;11508;50.856;4.380;2023-08-24T01:09:09;21.50;99.90
22682;DHT22;11508;50.856;4.380;2023-08-24T01:15:16;21.70;69.40
22682;DHT22;11508;50.856;4.380;2023-08-24T01:17:50;21.60;75.50
22682;DHT22;11508;50.856;4.380;2023-08-24T01:20:27;21.70;29.50
22682;DHT22;11508;50.856;4.380;2023-08-24T01:23:27;21.60;52.10
22682;DHT22;11508;50.856;4.380;2023-08-24T01:26:32;21.60;88.90
22682;DHT22;11508;50.856;4.380;2023-08-24T01:29:00;22.00;34.70
22682;DHT22;11508;50.856;4.380;2023-08-24T01:31:28;22.00;1.00
22682;DHT22;11508;50.856;4.380;2023-08-24T01:34:02;21.90;1.00
22682;DHT22;11508;50.856;4.380;2023-08-24T01:36:32;21.80;6.70
22682;DHT22;11508;50.856;4.380;2023-08-24T01:39:19;21.70;20.20
22682;DHT22;11508;50.856;4.380;2023-08-24T01:42:02;21.50;58.20
22682;DHT22;11508;50.856;4.380;2023-08-24T01:44:29;21.70;99.90
22682;DHT22;11508;50.856;4.380;2023-08-24T01:47:03;21.70;99.90
22682;DHT22;11508;50.856;4.380;2023-08-24T01:49:39;21.80;26.70
22682;DHT22;11508;50.856;4.380;2023-08-24T01:52:19;21.60;14.10
22682;DHT22;11508;50.856;4.380;2023-08-24T01:54:55;21.60;79.20
22682;DHT22;11508;50.856;4.380;2023-08-24T02:00:33;21.70;22.90
22682;DHT22;11508;50.856;4.380;2023-08-24T02:03:10;21.70;1.00
22682;DHT22;11508;50.856;4.380;2023-08-24T02:05:42;21.70;1.00
22682;DHT22;11508;50.856;4.380;2023-08-24T02:08:09;21.60;12.30
22682;DHT22;11508;50.856;4.380;2023-08-24T02:10:34;21.20;99.90
22682;DHT22;11508;50.856;4.380;2023-08-24T02:13:00;20.90;99.90
22682;DHT22;11508;50.856;4.380;2023-08-24T02:15:29;20.40;1.00
22682;DHT22;11508;50.856;4.380;2023-08-24T02:17:56;20.10;1.00
22682;DHT22;11508;50.856;4.380;2023-08-24T02:20:23;19.80;20.30
22682;DHT22;11508;50.856;4.380;2023-08-24T02:22:48;19.60;31.70
22682;DHT22;11508;50.856;4.380;2023-08-24T02:25:15;19.50;48.80
22682;DHT22;11508;50.856;4.380;2023-08-24T02:27:41;19.40;52.00
22682;DHT22;11508;50.856;4.380;2023-08-24T02:30:09;19.40;51.40
22682;DHT22;11508;50.856;4.380;2023-08-24T02:32:34;19.40;45.60
22682;DHT22;11508;50.856;4.380;2023-08-24T02:35:02;19.50;44.20
22682;DHT22;11508;50.856;4.380;2023-08-24T02:37:29;19.50;41.10
22682;DHT22;11508;50.856;4.380;2023-08-24T02:39:55;19.70;43.20
22682;DHT22;11508;50.856;4.380;2023-08-24T02:42:32;19.90;31.10
22682;DHT22;11508;50.856;4.380;2023-08-24T02:44:58;20.00;10.10
22682;DHT22;11508;50.856;4.380;2023-08-24T02:47:27;20.00;1.00
22682;DHT22;11508;50.856;4.380;2023-08-24T02:49:54;20.00;1.00
22682;DHT22;11508;50.856;4.380;2023-08-24T02:52:20;20.20;1.00
22682;DHT22;11508;50.856;4.380;2023-08-24T02:54:46;20.20;1.00
22682;DHT22;11508;50.856;4.380;2023-08-24T02:57:12;20.20;1.00
22682;DHT22;11508;50.856;4.380;2023-08-24T02:59:39;20.30;1.00
22682;DHT22;11508;50.856;4.380;2023-08-24T03:02:10;20.40;1.00
22682;DHT22;11508;50.856;4.380;2023-08-24T03:04:36;20.50;1.00
22682;DHT22;11508;50.856;4.380;2023-08-24T03:07:02;20.60;1.00
22682;DHT22;11508;50.856;4.380;2023-08-24T03:09:33;20.70;1.00
22682;DHT22;11508;50.856;4.380;2023-08-24T03:12:00;20.80;1.00
22682;DHT22;11508;50.856;4.380;2023-08-24T03:14:27;20.80;1.00
22682;DHT22;11508;50.856;4.380;2023-08-24T03:17:04;20.90;1.00
22682;DHT22;11508;50.856;4.380;2023-08-24T03:19:34;20.90;1.00
22682;DHT22;11508;50.856;4.380;2023-08-24T03:22:00;20.20;1.00
22682;DHT22;11508;50.856;4.380;2023-08-24T03:24:27;20.70;1.00
22682;DHT22;11508;50.856;4.380;2023-08-24T03:26:59;20.60;1.00
22682;DHT22;11508;50.856;4.380;2023-08-24T03:29:25;20.60;1.00
22682;DHT22;11508;50.856;4.380;2023-08-24T03:31:51;20.50;1.00
22682;DHT22;11508;50.856;4.380;2023-08-24T03:34:17;20.50;1.00
22682;DHT22;11508;50.856;4.380;2023-08-24T03:36:50;20.50;1.00
22682;DHT22;11508;50.856;4.380;2023-08-24T03:39:17;20.40;3.40
22682;DHT22;11508;50.856;4.380;2023-08-24T03:41:44;20.50;1.00
22682;DHT22;11508;50.856;4.380;2023-08-24T03:44:09;20.50;1.00
22682;DHT22;11508;50.856;4.380;2023-08-24T03:46:35;20.60;3.90
22682;DHT22;11508;50.856;4.380;2023-08-24T03:49:01;20.60;1.00
22682;DHT22;11508;50.856;4.380;2023-08-24T03:51:28;20.60;6.00
22682;DHT22;11508;50.856;4.380;2023-08-24T03:53:54;20.70;1.00
22682;DHT22;11508;50.856;4.380;2023-08-24T03:56:20;20.70;1.00
22682;DHT22;11508;50.856;4.380;2023-08-24T03:58:46;20.80;3.90
22682;DHT22;11508;50.856;4.380;2023-08-24T04:01:12;20.90;1.00
22682;DHT22;11508;50.856;4.380;2023-08-24T04:03:38;21.00;1.00
22682;DHT22;11508;50.856;4.380;2023-08-24T04:06:04;21.10;1.00
22682;DHT22;11508;50.856;4.380;2023-08-24T04:08:31;21.00;1.00
22682;DHT22;11508;50.856;4.380;2023-08-24T04:10:56;21.10;1.00
22682;DHT22;11508;50.856;4.380;2023-08-24T04:13:23;21.20;1.00
22682;DHT22;11508;50.856;4.380;2023-08-24T04:15:49;21.20;1.00
22682;DHT22;11508;50.856;4.380;2023-08-24T04:18:16;21.20;1.00
22682;DHT22;11508;50.856;4.380;2023-08-24T04:20:45;21.10;1.00
22682;DHT22;11508;50.856;4.380;2023-08-24T04:23:13;21.10;1.00
22682;DHT22;11508;50.856;4.380;2023-08-24T04:25:40;21.10;1.00
22682;DHT22;11508;50.856;4.380;2023-08-24T04:28:06;21.20;1.00
22682;DHT22;11508;50.856;4.380;2023-08-24T04:30:32;21.20;1.00
22682;DHT22;11508;50.856;4.380;2023-08-24T04:33:00;21.30;1.00
22682;DHT22;11508;50.856;4.380;2023-08-24T04:35:25;21.40;1.00
22682;DHT22;11508;50.856;4.380;2023-08-24T04:37:57;21.30;1.00
22682;DHT22;11508;50.856;4.380;2023-08-24T04:40:24;21.20;1.00
22682;DHT22;11508;50.856;4.380;2023-08-24T04:42:53;21.10;1.00
22682;DHT22;11508;50.856;4.380;2023-08-24T04:45:26;21.10;1.00
22682;DHT22;11508;50.856;4.380;2023-08-24T04:48:02;21.20;1.00
22682;DHT22;11508;50.856;4.380;2023-08-24T04:50:30;21.10;1.00
22682;DHT22;11508;50.856;4.380;2023-08-24T04:52:58;21.10;1.00
22682;DHT22;11508;50.856;4.380;2023-08-24T04:55:24;21.10;1.00
22682;DHT22;11508;50.856;4.380;2023-08-24T04:57:58;20.90;13.50
22682;DHT22;11508;50.856;4.380;2023-08-24T05:00:30;20.70;40.30
22682;DHT22;11508;50.856;4.380;2023-08-24T05:03:24;20.70;46.30
22682;DHT22;11508;50.856;4.380;2023-08-24T05:05:59;20.90;41.20
22682;DHT22;11508;50.856;4.380;2023-08-24T05:08:28;20.90;40.70
22682;DHT22;11508;50.856;4.380;2023-08-24T05:11:13;20.80;51.00
22682;DHT22;11508;50.856;4.380;2023-08-24T05:14:02;21.00;41.90
22682;DHT22;11508;50.856;4.380;2023-08-24T05:16:30;21.00;28.30
22682;DHT22;11508;50.856;4.380;2023-08-24T05:18:59;21.00;32.80
22682;DHT22;11508;50.856;4.380;2023-08-24T05:21:25;21.00;43.90
22682;DHT22;11508;50.856;4.380;2023-08-24T05:24:13;21.10;42.60
22682;DHT22;11508;50.856;4.380;2023-08-24T05:26:50;21.20;32.00
22682;DHT22;11508;50.856;4.380;2023-08-24T05:29:16;21.30;19.30
22682;DHT22;11508;50.856;4.380;2023-08-24T05:31:42;21.30;20.00
22682;DHT22;11508;50.856;4.380;2023-08-24T05:34:08;21.40;20.70
22682;DHT22;11508;50.856;4.380;2023-08-24T05:36:48;21.60;12.40
22682;DHT22;11508;50.856;4.380;2023-08-24T05:39:16;21.80;1.00
22682;DHT22;11508;50.856;4.380;2023-08-24T05:41:43;21.90;1.00
22682;DHT22;11508;50.856;4.380;2023-08-24T05:44:09;21.80;1.00
22682;DHT22;11508;50.856;4.380;2023-08-24T05:46:36;21.80;1.00
22682;DHT22;11508;50.856;4.380;2023-08-24T05:49:03;21.70;1.00
22682;DHT22;11508;50.856;4.380;2023-08-24T05:51:30;21.60;1.00
22682;DHT22;11508;50.856;4.380;2023-08-24T05:54:05;21.80;1.00
22682;DHT22;11508;50.856;4.380;2023-08-24T05:56:34;22.00;1.00
22682;DHT22;11508;50.856;4.380;2023-08-24T05:59:41;22.10;1.00
22682;DHT22;11508;50.856;4.380;2023-08-24T06:02:36;22.20;1.00
22682;DHT22;11508;50.856;4.380;2023-08-24T06:05:07;22.40;1.00
22682;DHT22;11508;50.856;4.380;2023-08-24T06:07:37;22.70;1.00
22682;DHT22;11508;50.856;4.380;2023-08-24T06:10:04;22.80;1.00
22682;DHT22;11508;50.856;4.380;2023-08-24T06:12:32;23.00;1.00
22682;DHT22;11508;50.856;4.380;2023-08-24T06:14:59;23.10;1.00
22682;DHT22;11508;50.856;4.380;2023-08-24T06:17:28;23.40;1.00
22682;DHT22;11508;50.856;4.380;2023-08-24T06:19:54;23.50;1.00
22682;DHT22;11508;50.856;4.380;2023-08-24T06:22:23;23.70;1.00
22682;DHT22;11508;50.856;4.380;2023-08-24T06:24:49;23.70;1.00
22682;DHT22;11508;50.856;4.380;2023-08-24T06:27:32;23.90;1.00
22682;DHT22;11508;50.856;4.380;2023-08-24T06:29:58;24.00;1.00
22682;DHT22;11508;50.856;4.380;2023-08-24T06:32:24;24.20;1.00
22682;DHT22;11508;50.856;4.380;2023-08-24T06:35:08;24.40;1.00
22682;DHT22;11508;50.856;4.380;2023-08-24T06:37:34;24.60;1.00
22682;DHT22;11508;50.856;4.380;2023-08-24T06:40:03;24.70;1.00
22682;DHT22;11508;50.856;4.380;2023-08-24T06:42:31;24.90;1.00
22682;DHT22;11508;50.856;4.380;2023-08-24T06:44:57;25.20;99.90
22682;DHT22;11508;50.856;4.380;2023-08-24T06:47:22;25.30;99.90
22682;DHT22;11508;50.856;4.380;2023-08-24T06:49:48;25.40;99.90
22682;DHT22;11508;50.856;4.380;2023-08-24T06:52:15;25.40;99.90
22682;DHT22;11508;50.856;4.380;2023-08-24T06:54:56;25.00;99.90
22682;DHT22;11508;50.856;4.380;2023-08-24T06:57:37;25.10;99.90
22682;DHT22;11508;50.856;4.380;2023-08-24T07:00:08;25.60;99.90
22682;DHT22;11508;50.856;4.380;2023-08-24T07:03:14;25.90;99.90
22682;DHT22;11508;50.856;4.380;2023-08-24T07:06:00;26.20;99.90
22682;DHT22;11508;50.856;4.380;2023-08-24T07:13:15;26.50;99.90
22682;DHT22;11508;50.856;4.380;2023-08-24T07:16:31;27.00;99.90
22682;DHT22;11508;50.856;4.380;2023-08-24T07:19:06;27.30;99.90
22682;DHT22;11508;50.856;4.380;2023-08-24T07:21:59;27.50;99.90
22682;DHT22;11508;50.856;4.380;2023-08-24T07:31:49;27.70;99.90
22682;DHT22;11508;50.856;4.380;2023-08-24T07:35:07;27.40;99.90
22682;DHT22;11508;50.856;4.380;2023-08-24T07:41:45;27.90;99.90
22682;DHT22;11508;50.856;4.380;2023-08-24T07:54:21;27.40;99.90
22682;DHT22;11508;50.856;4.380;2023-08-24T07:57:38;27.30;99.90
22682;DHT22;11508;50.856;4.380;2023-08-24T08:00:48;27.20;99.90
22682;DHT22;11508;50.856;4.380;2023-08-24T08:04:08;27.30;99.90
22682;DHT22;11508;50.856;4.380;2023-08-24T08:06:47;26.40;99.90
22682;DHT22;11508;50.856;4.380;2023-08-24T08:09:17;26.30;99.90
22682;DHT22;11508;50.856;4.380;2023-08-24T08:11:46;26.60;99.90
22682;DHT22;11508;50.856;4.380;2023-08-24T08:14:13;26.70;92.60
22682;DHT22;11508;50.856;4.380;2023-08-24T08:16:59;26.80;88.40
22682;DHT22;11508;50.856;4.380;2023-08-24T08:19:30;26.80;64.30
22682;DHT22;11508;50.856;4.380;2023-08-24T08:22:05;26.80;56.60
22682;DHT22;11508;50.856;4.380;2023-08-24T08:24:34;26.90;42.10
22682;DHT22;11508;50.856;4.380;2023-08-24T08:27:20;27.00;31.30
22682;DHT22;11508;50.856;4.380;2023-08-24T08:29:59;26.90;36.30
22682;DHT22;11508;50.856;4.380;2023-08-24T08:32:26;27.00;24.90
22682;DHT22;11508;50.856;4.380;2023-08-24T08:35:02;27.00;1.00
22682;DHT22;11508;50.856;4.380;2023-08-24T08:37:55;26.70;1.00
22682;DHT22;11508;50.856;4.380;2023-08-24T08:40:44;26.90;7.80
22682;DHT22;11508;50.856;4.380;2023-08-24T08:43:39;27.00;1.00
22682;DHT22;11508;50.856;4.380;2023-08-24T08:46:14;27.10;1.00
22682;DHT22;11508;50.856;4.380;2023-08-24T08:48:51;27.30;1.00
22682;DHT22;11508;50.856;4.380;2023-08-24T08:54:49;27.30;1.00
22682;DHT22;11508;50.856;4.380;2023-08-24T08:57:25;26.80;99.90
22682;DHT22;11508;50.856;4.380;2023-08-24T09:00:27;26.80;99.90
22682;DHT22;11508;50.856;4.380;2023-08-24T09:03:23;26.60;99.90
22682;DHT22;11508;50.856;4.380;2023-08-24T09:06:08;26.50;99.90
22682;DHT22;11508;50.856;4.380;2023-08-24T09:09:17;26.60;99.90
22682;DHT22;11508;50.856;4.380;2023-08-24T09:12:07;26.30;99.90
22682;DHT22;11508;50.856;4.380;2023-08-24T09:18:18;27.00;99.90
22682;DHT22;11508;50.856;4.380;2023-08-24T09:24:40;25.50;99.90
22682;DHT22;11508;50.856;4.380;2023-08-24T09:27:25;24.50;99.90
22682;DHT22;11508;50.856;4.380;2023-08-24T09:29:52;24.20;1.00
22682;DHT22;11508;50.856;4.380;2023-08-24T09:32:24;24.10;1.00
22682;DHT22;11508;50.856;4.380;2023-08-24T09:34:52;23.90;1.00
22682;DHT22;11508;50.856;4.380;2023-08-24T09:37:19;23.80;1.00
22682;DHT22;11508;50.856;4.380;2023-08-24T09:39:45;23.50;1.00
22682;DHT22;11508;50.856;4.380;2023-08-24T09:42:13;23.30;4.90
22682;DHT22;11508;50.856;4.380;2023-08-24T09:44:45;23.00;3.80
22682;DHT22;11508;50.856;4.380;2023-08-24T09:47:11;22.70;37.50
22682;DHT22;11508;50.856;4.380;2023-08-24T09:49:37;22.30;54.50
22682;DHT22;11508;50.856;4.380;2023-08-24T09:52:03;22.10;85.50
22682;DHT22;11508;50.856;4.380;2023-08-24T09:54:32;21.90;88.90
22682;DHT22;11508;50.856;4.380;2023-08-24T09:57:02;21.70;95.20
22682;DHT22;11508;50.856;4.380;2023-08-24T09:59:32;21.60;99.90
22682;DHT22;11508;50.856;4.380;2023-08-24T10:02:00;21.50;99.90
22682;DHT22;11508;50.856;4.380;2023-08-24T10:04:29;21.40;99.90
22682;DHT22;11508;50.856;4.380;2023-08-24T10:07:05;21.20;99.90
22682;DHT22;11508;50.856;4.380;2023-08-24T10:09:38;21.00;99.90
22682;DHT22;11508;50.856;4.380;2023-08-24T10:12:04;20.80;99.90
22682;DHT22;11508;50.856;4.380;2023-08-24T10:14:49;20.60;99.90
22682;DHT22;11508;50.856;4.380;2023-08-24T10:17:16;20.60;99.90
22682;DHT22;11508;50.856;4.380;2023-08-24T10:19:42;20.50;99.90
22682;DHT22;11508;50.856;4.380;2023-08-24T10:22:10;20.50;99.90
22682;DHT22;11508;50.856;4.380;2023-08-24T10:24:36;20.50;99.90
22682;DHT22;11508;50.856;4.380;2023-08-24T10:27:03;20.50;99.90
22682;DHT22;11508;50.856;4.380;2023-08-24T10:29:29;20.50;99.90
22682;DHT22;11508;50.856;4.380;2023-08-24T10:31:56;20.60;99.90
22682;DHT22;11508;50.856;4.380;2023-08-24T10:34:24;20.60;99.90
22682;DHT22;11508;50.856;4.380;2023-08-24T10:36:50;20.60;99.90
22682;DHT22;11508;50.856;4.380;2023-08-24T10:39:17;20.60;99.90
22682;DHT22;11508;50.856;4.380;2023-08-24T10:41:53;20.60;99.90
22682;DHT22;11508;50.856;4.380;2023-08-24T10:44:35;20.60;99.90
22682;DHT22;11508;50.856;4.380;2023-08-24T10:47:11;20.80;99.90
22682;DHT22;11508;50.856;4.380;2023-08-24T10:49:59;20.80;99.90
22682;DHT22;11508;50.856;4.380;2023-08-24T10:52:33;20.90;99.90
22682;DHT22;11508;50.856;4.380;2023-08-24T10:55:01;21.00;99.90
22682;DHT22;11508;50.856;4.380;2023-08-24T10:57:38;21.00;99.90
22682;DHT22;11508;50.856;4.380;2023-08-24T11:00:06;21.10;99.90
22682;DHT22;11508;50.856;4.380;2023-08-24T11:10:17;21.60;99.90
22682;DHT22;11508;50.856;4.380;2023-08-24T11:13:16;21.50;99.90
22682;DHT22;11508;50.856;4.380;2023-08-24T11:15:46;21.50;99.90
22682;DHT22;11508;50.856;4.380;2023-08-24T11:21:07;21.70;99.90
22682;DHT22;11508;50.856;4.380;2023-08-24T11:23:32;21.60;99.90
22682;DHT22;11508;50.856;4.380;2023-08-24T11:25:59;21.80;99.90
22682;DHT22;11508;50.856;4.380;2023-08-24T11:28:27;21.90;99.90
22682;DHT22;11508;50.856;4.380;2023-08-24T11:30:54;22.00;99.90
22682;DHT22;11508;50.856;4.380;2023-08-24T11:33:35;22.00;99.90
22682;DHT22;11508;50.856;4.380;2023-08-24T11:36:03;22.10;99.90
22682;DHT22;11508;50.856;4.380;2023-08-24T11:38:58;22.10;99.90
22682;DHT22;11508;50.856;4.380;2023-08-24T11:41:25;22.20;99.90
22682;DHT22;11508;50.856;4.380;2023-08-24T11:43:59;22.10;99.90
22682;DHT22;11508;50.856;4.380;2023-08-24T11:46:28;22.10;99.90
22682;DHT22;11508;50.856;4.380;2023-08-24T11:48:55;22.00;99.90
22682;DHT22;11508;50.856;4.380;2023-08-24T11:51:21;22.20;99.90
22682;DHT22;11508;50.856;4.380;2023-08-24T11:53:47;22.20;93.80
22682;DHT22;11508;50.856;4.380;2023-08-24T11:56:13;22.20;96.50
22682;DHT22;11508;50.856;4.380;2023-08-24T11:58:48;22.20;93.10
22682;DHT22;11508;50.856;4.380;2023-08-24T12:01:14;22.20;90.60
22682;DHT22;11508;50.856;4.380;2023-08-24T12:03:41;22.30;94.80
22682;DHT22;11508;50.856;4.380;2023-08-24T12:06:19;22.30;95.20
22682;DHT22;11508;50.856;4.380;2023-08-24T12:08:47;22.50;91.40
22682;DHT22;11508;50.856;4.380;2023-08-24T12:11:20;22.50;76.70
22682;DHT22;11508;50.856;4.380;2023-08-24T12:13:51;22.40;87.80
22682;DHT22;11508;50.856;4.380;2023-08-24T12:16:17;22.50;86.70
22682;DHT22;11508;50.856;4.380;2023-08-24T12:19:10;22.50;75.50
22682;DHT22;11508;50.856;4.380;2023-08-24T12:21:36;22.20;91.80
22682;DHT22;11508;50.856;4.380;2023-08-24T12:24:04;21.90;99.90
22682;DHT22;11508;50.856;4.380;2023-08-24T12:26:32;21.90;99.90
22682;DHT22;11508;50.856;4.380;2023-08-24T12:29:08;21.70;99.90
22682;DHT22;11508;50.856;4.380;2023-08-24T12:31:35;21.60;99.90
22682;DHT22;11508;50.856;4.380;2023-08-24T12:34:02;21.60;99.90
22682;DHT22;11508;50.856;4.380;2023-08-24T12:36:29;21.60;99.90
22682;DHT22;11508;50.856;4.380;2023-08-24T12:38:55;21.60;99.90
22682;DHT22;11508;50.856;4.380;2023-08-24T12:41:22;21.50;99.90
22682;DHT22;11508;50.856;4.380;2023-08-24T12:43:47;21.40;99.90
22682;DHT22;11508;50.856;4.380;2023-08-24T12:46:13;21.20;99.90
22682;DHT22;11508;50.856;4.380;2023-08-24T12:48:40;21.30;99.90
22682;DHT22;11508;50.856;4.380;2023-08-24T12:51:05;21.20;99.90
22682;DHT22;11508;50.856;4.380;2023-08-24T12:53:31;21.10;99.90
22682;DHT22;11508;50.856;4.380;2023-08-24T12:55:56;21.10;99.90
22682;DHT22;11508;50.856;4.380;2023-08-24T12:58:22;21.00;99.90
22682;DHT22;11508;50.856;4.380;2023-08-24T13:00:48;21.00;99.90
22682;DHT22;11508;50.856;4.380;2023-08-24T13:03:14;21.10;99.90
22682;DHT22;11508;50.856;4.380;2023-08-24T13:05:40;21.00;99.90
22682;DHT22;11508;50.856;4.380;2023-08-24T13:08:05;21.00;99.90
22682;DHT22;11508;50.856;4.380;2023-08-24T13:10:31;20.90;99.90
22682;DHT22;11508;50.856;4.380;2023-08-24T13:12:57;21.00;99.90
22682;DHT22;11508;50.856;4.380;2023-08-24T13:15:23;21.00;99.90
22682;DHT22;11508;50.856;4.380;2023-08-24T13:17:50;21.10;99.90
22682;DHT22;11508;50.856;4.380;2023-08-24T13:20:16;21.00;99.90
22682;DHT22;11508;50.856;4.380;2023-08-24T13:22:41;21.00;99.90
22682;DHT22;11508;50.856;4.380;2023-08-24T13:25:07;21.10;99.90
22682;DHT22;11508;50.856;4.380;2023-08-24T13:27:33;21.00;99.90
22682;DHT22;11508;50.856;4.380;2023-08-24T13:30:03;21.00;99.90
22682;DHT22;11508;50.856;4.380;2023-08-24T13:32:29;21.00;99.90
22682;DHT22;11508;50.856;4.380;2023-08-24T13:34:55;20.90;99.90
22682;DHT22;11508;50.856;4.380;2023-08-24T13:37:22;20.90;99.90
22682;DHT22;11508;50.856;4.380;2023-08-24T13:39:49;20.90;99.90
22682;DHT22;11508;50.856;4.380;2023-08-24T13:42:15;20.90;99.90
22682;DHT22;11508;50.856;4.380;2023-08-24T13:44:40;21.00;99.90
22682;DHT22;11508;50.856;4.380;2023-08-24T13:47:06;21.10;99.90
22682;DHT22;11508;50.856;4.380;2023-08-24T13:49:32;21.10;99.90
22682;DHT22;11508;50.856;4.380;2023-08-24T13:51:57;21.10;99.90
22682;DHT22;11508;50.856;4.380;2023-08-24T13:54:23;21.10;99.90
22682;DHT22;11508;50.856;4.380;2023-08-24T13:56:51;21.10;99.90
22682;DHT22;11508;50.856;4.380;2023-08-24T13:59:19;21.10;99.90
22682;DHT22;11508;50.856;4.380;2023-08-24T14:01:45;21.10;99.90
22682;DHT22;11508;50.856;4.380;2023-08-24T14:04:10;21.20;99.90
22682;DHT22;11508;50.856;4.380;2023-08-24T14:06:36;21.20;99.90
22682;DHT22;11508;50.856;4.380;2023-08-24T14:09:03;21.30;99.90
22682;DHT22;11508;50.856;4.380;2023-08-24T14:11:29;21.30;99.90
22682;DHT22;11508;50.856;4.380;2023-08-24T14:13:54;21.30;99.90
22682;DHT22;11508;50.856;4.380;2023-08-24T14:16:20;21.40;98.40
22682;DHT22;11508;50.856;4.380;2023-08-24T14:18:52;21.30;97.30
22682;DHT22;11508;50.856;4.380;2023-08-24T14:21:18;21.40;96.70
22682;DHT22;11508;50.856;4.380;2023-08-24T14:23:45;21.50;93.80
22682;DHT22;11508;50.856;4.380;2023-08-24T14:26:11;21.50;90.00
22682;DHT22;11508;50.856;4.380;2023-08-24T14:28:54;21.50;91.60
22682;DHT22;11508;50.856;4.380;2023-08-24T14:31:25;21.50;91.40
22682;DHT22;11508;50.856;4.380;2023-08-24T14:33:51;21.60;89.00
22682;DHT22;11508;50.856;4.380;2023-08-24T14:36:18;21.70;80.30
22682;DHT22;11508;50.856;4.380;2023-08-24T14:38:46;21.60;78.20
22682;DHT22;11508;50.856;4.380;2023-08-24T14:41:14;21.60;81.80
22682;DHT22;11508;50.856;4.380;2023-08-24T14:43:42;21.80;68.80
22682;DHT22;11508;50.856;4.380;2023-08-24T14:46:08;21.80;64.00
22682;DHT22;11508;50.856;4.380;2023-08-24T14:48:34;22.00;66.00
22682;DHT22;11508;50.856;4.380;2023-08-24T14:51:00;22.30;44.90
22682;DHT22;11508;50.856;4.380;2023-08-24T14:53:26;22.30;42.50
22682;DHT22;11508;50.856;4.380;2023-08-24T14:55:55;22.20;38.80
22682;DHT22;11508;50.856;4.380;2023-08-24T14:58:22;22.30;42.60
22682;DHT22;11508;50.856;4.380;2023-08-24T15:00:51;22.20;38.50
22682;DHT22;11508;50.856;4.380;2023-08-24T15:03:17;22.30;35.40
22682;DHT22;11508;50.856;4.380;2023-08-24T15:05:46;22.40;31.30
22682;DHT22;11508;50.856;4.380;2023-08-24T15:08:20;22.50;19.80
22682;DHT22;11508;50.856;4.380;2023-08-24T15:10:48;22.50;31.40
22682;DHT22;11508;50.856;4.380;2023-08-24T15:13:14;22.50;23.20
22682;DHT22;11508;50.856;4.380;2023-08-24T15:15:39;22.40;26.10
22682;DHT22;11508;50.856;4.380;2023-08-24T15:18:05;22.60;17.10
22682;DHT22;11508;50.856;4.380;2023-08-24T15:20:31;22.60;13.70
22682;DHT22;11508;50.856;4.380;2023-08-24T15:22:59;22.60;13.50
22682;DHT22;11508;50.856;4.380;2023-08-24T15:25:25;22.70;11.40
22682;DHT22;11508;50.856;4.380;2023-08-24T15:27:51;22.80;7.00
22682;DHT22;11508;50.856;4.380;2023-08-24T15:30:16;22.80;4.10
22682;DHT22;11508;50.856;4.380;2023-08-24T15:32:42;22.80;1.00
22682;DHT22;11508;50.856;4.380;2023-08-24T15:35:08;22.90;1.00
22682;DHT22;11508;50.856;4.380;2023-08-24T15:37:34;22.90;1.00
22682;DHT22;11508;50.856;4.380;2023-08-24T15:40:01;23.00;1.00
22682;DHT22;11508;50.856;4.380;2023-08-24T15:42:29;23.10;1.00
22682;DHT22;11508;50.856;4.380;2023-08-24T15:44:55;23.00;1.00
22682;DHT22;11508;50.856;4.380;2023-08-24T15:47:21;23.10;1.00
22682;DHT22;11508;50.856;4.380;2023-08-24T15:49:47;23.40;1.00
22682;DHT22;11508;50.856;4.380;2023-08-24T15:52:12;23.30;1.00
22682;DHT22;11508;50.856;4.380;2023-08-24T15:54:39;23.40;1.00
22682;DHT22;11508;50.856;4.380;2023-08-24T15:57:04;23.60;1.00
22682;DHT22;11508;50.856;4.380;2023-08-24T15:59:30;23.80;1.00
22682;DHT22;11508;50.856;4.380;2023-08-24T16:01:56;23.80;1.00
22682;DHT22;11508;50.856;4.380;2023-08-24T16:04:21;24.10;1.00
22682;DHT22;11508;50.856;4.380;2023-08-24T16:06:47;24.00;1.00
22682;DHT22;11508;50.856;4.380;2023-08-24T16:09:13;23.80;1.00
22682;DHT22;11508;50.856;4.380;2023-08-24T16:11:39;24.00;1.00
22682;DHT22;11508;50.856;4.380;2023-08-24T16:14:06;24.20;1.00
22682;DHT22;11508;50.856;4.380;2023-08-24T16:16:32;24.20;1.00
22682;DHT22;11508;50.856;4.380;2023-08-24T16:19:00;24.20;1.00
22682;DHT22;11508;50.856;4.380;2023-08-24T16:21:27;24.20;1.00
22682;DHT22;11508;50.856;4.380;2023-08-24T16:23:54;24.10;1.00
22682;DHT22;11508;50.856;4.380;2023-08-24T16:26:20;24.40;1.00
22682;DHT22;11508;50.856;4.380;2023-08-24T16:28:46;24.40;1.00
22682;DHT22;11508;50.856;4.380;2023-08-24T16:31:12;23.90;1.00
22682;DHT22;11508;50.856;4.380;2023-08-24T16:33:38;23.80;1.00
22682;DHT22;11508;50.856;4.380;2023-08-24T16:36:06;23.70;1.00
22682;DHT22;11508;50.856;4.380;2023-08-24T16:38:32;23.80;1.00
22682;DHT22;11508;50.856;4.380;2023-08-24T16:40:57;23.90;1.00
22682;DHT22;11508;50.856;4.380;2023-08-24T16:43:23;24.10;1.00
22682;DHT22;11508;50.856;4.380;2023-08-24T16:45:49;23.90;1.00
22682;DHT22;11508;50.856;4.380;2023-08-24T16:48:14;23.80;1.00
22682;DHT22;11508;50.856;4.380;2023-08-24T16:50:45;23.90;1.00
22682;DHT22;11508;50.856;4.380;2023-08-24T16:53:10;23.90;1.00
22682;DHT22;11508;50.856;4.380;2023-08-24T16:55:37;23.80;1.00
22682;DHT22;11508;50.856;4.380;2023-08-24T16:58:03;23.90;1.00
22682;DHT22;11508;50.856;4.380;2023-08-24T17:00:29;23.90;1.00
22682;DHT22;11508;50.856;4.380;2023-08-24T17:02:56;23.90;1.00